No requiere especial atencion con respecto al clima.   -   No hay Alarmas

Informes de METAR cercanos

 

LEXJ - Santander/Parayas, Spain
Distance from station: ESE 6km
Actualización: 19/07/2018 22:30
Lluvia débil, Showers, Cubierto
Lluvia débil, Showers, Cubierto
 Viento del ONO
Viento: ONO 13 km/h
Temperatura: 19°C
Rocío: 19°C
Humedad: 100%
Barómetro: 1019 hPa
Resumen: Lluvia débil, Showers
Clouds: Cubierto
Visibility: 10 km
Cloud details: Muy nuboso 701 m
Muy nuboso 1372 m
Cubierto 2377 m
2018/07/19 20:30 LEXJ 192030Z 30007KT 280V340 9999 -SHRA BKN023TCU BKN045 OVC078 19/19 Q1019
LEBB - Bilbao/Sondica, Spain
Distance from station: ESE 80km
Actualización: 19/07/2018 22:30
Muy nuboso
Muy nuboso
 Viento del varies
Viento: varies 4 km/h
Temperatura: 22°C
Rocío: 18°C
Humedad: 78%
Barómetro: 1018 hPa
Clouds: Muy nuboso
Visibility: 10 km
Cloud details: Few Clouds 853 m
Parcialmente nuboso 1372 m
Muy nuboso 1890 m
2018/07/19 20:30 LEBB 192030Z VRB02KT 9999 FEW028 SCT045 BKN062 22/18 Q1018 NOSIG
 
LEBL - Barcelona Airpor, Spain
Distance from station: ESE 726km
Actualización: 19/07/2018 22:30
Despejado
Despejado
 Viento del SO
Viento: SO 15 km/h
Temperatura: 26°C
Rocío: 21°C
Humedad: 74%
Barómetro: 1014 hPa
Resumen: Despejado
Visibility: greater than 10 km
2018/07/19 20:30 LEBL 192030Z 23008KT CAVOK 26/21 Q1014 NOSIG
LEMD - Madrid/Barajas, Spain
Distance from station: S 325km
Actualización: 19/07/2018 22:30
Despejado
Despejado
 Viento del O
Viento: O 13 km/h
Temperatura: 30°C
Rocío: 7°C
Humedad: 24%
Barómetro: 1015 hPa
Resumen: Despejado
Visibility: greater than 10 km
2018/07/19 20:30 LEMD 192030Z 26007KT 220V280 CAVOK 30/07 Q1015 NOSIG
 
LPPT - Lisbon/Portela, Portugal
Distance from station: SO 663km
Actualización: 19/07/2018 22:30
Muy nuboso
Muy nuboso
 Viento del NO
Viento: NO 13 km/h
Temperatura: 20°C
Rocío: 17°C
Humedad: 83%
Barómetro: 1018 hPa
Clouds: Muy nuboso
Visibility: 10 km
Cloud details: Few Clouds 427 m
Muy nuboso 610 m
2018/07/19 20:30 LPPT 192030Z 32007KT 280V350 9999 FEW014 BKN020 20/17 Q1018
LECO - La Coruna/Alvedr, Spain
Distance from station: O 349km
Actualización: 19/07/2018 22:30
Parcialmente nuboso
Parcialmente nuboso
 Viento del N
Viento: N 11 km/h
Temperatura: 18°C
Rocío: 16°C
Humedad: 88%
Barómetro: 1020 hPa
Clouds: Parcialmente nuboso
Visibility: 10 km
Cloud details: Parcialmente nuboso 914 m
2018/07/19 20:30 LECO 192030Z 36006KT 320V060 9999 SCT030 18/16 Q1020 NOSIG
 
LEST - Santiago/Labacol, Spain
Distance from station: O 358km
Actualización: 19/07/2018 22:30
Muy nuboso
Muy nuboso
 Viento del NNE
Viento: NNE 19 km/h
Temperatura: 17°C
Rocío: 15°C
Humedad: 88%
Barómetro: 1020 hPa
Clouds: Muy nuboso
Visibility: 10 km
Cloud details: Few Clouds 366 m
Muy nuboso 823 m
2018/07/19 20:30 LEST 192030Z 02010KT 340V060 9999 FEW012 BKN027 17/15 Q1020 NOSIG
EBBR - Brussels International Airport, Belgium
Distance from station: O 1339km
Actualización: 19/07/2018 22:20
Despejado
Despejado
 Viento del N
Viento: N 7 km/h
Temperatura: 20°C
Rocío: 8°C
Humedad: 46%
Barómetro: 1017 hPa
Resumen: Despejado
Visibility: greater than 10 km
2018/07/19 20:20 EBBR 192020Z 36004KT CAVOK 20/08 Q1017 NOSIG